createdAt,value
2022-11-30T00:00:31.812Z,41.92
2022-11-30T00:03:22.752Z,41.88
2022-11-30T00:06:15.142Z,44.72
2022-11-30T00:09:04.572Z,43.23
2022-11-30T00:11:53.873Z,45.50
2022-11-30T00:14:43.210Z,48.55
2022-11-30T00:17:32.559Z,46.80
2022-11-30T00:20:23.263Z,42.53
2022-11-30T00:23:12.786Z,44.42
2022-11-30T00:26:03.465Z,42.28
2022-11-30T00:28:52.764Z,43.47
2022-11-30T00:31:42.212Z,42.88
2022-11-30T00:34:31.492Z,42.85
2022-11-30T00:37:23.183Z,42.92
2022-11-30T00:40:14.281Z,44.70
2022-11-30T00:43:03.796Z,44.67
2022-11-30T00:45:53.126Z,43.33
2022-11-30T00:48:43.311Z,42.55
2022-11-30T00:51:32.619Z,47.92
2022-11-30T00:54:24.234Z,50.65
2022-11-30T00:57:13.562Z,47.50
2022-11-30T01:00:02.835Z,45.10
2022-11-30T01:02:55.781Z,41.25
2022-11-30T01:05:45.163Z,42.47
2022-11-30T01:08:34.943Z,42.25
2022-11-30T01:11:28.275Z,41.83
2022-11-30T01:14:17.530Z,40.58
2022-11-30T01:17:06.949Z,42.72
2022-11-30T01:19:56.306Z,47.45
2022-11-30T01:22:46.637Z,48.40
2022-11-30T01:25:38.008Z,51.00
2022-11-30T01:28:28.918Z,53.50
2022-11-30T01:31:19.177Z,49.75
2022-11-30T01:34:08.695Z,54.70
2022-11-30T01:36:58.062Z,54.55
2022-11-30T01:39:47.511Z,56.72
2022-11-30T01:42:38.093Z,53.67
2022-11-30T01:45:28.883Z,57.40
2022-11-30T01:48:18.255Z,55.80
2022-11-30T01:51:07.751Z,55.03
2022-11-30T01:53:57.091Z,55.63
2022-11-30T01:56:50.352Z,53.53
2022-11-30T01:59:39.949Z,53.83
2022-11-30T02:02:52.937Z,51.63
2022-11-30T02:05:42.883Z,49.67
2022-11-30T02:08:33.959Z,40.10
2022-11-30T02:11:24.800Z,37.88
2022-11-30T02:14:30.689Z,41.35
2022-11-30T02:17:29.618Z,39.63
2022-11-30T02:20:48.403Z,39.72
2022-11-30T02:24:07.737Z,40.05
2022-11-30T02:27:13.362Z,40.63
2022-11-30T02:30:08.604Z,45.47
2022-11-30T02:33:02.558Z,46.45
2022-11-30T02:35:55.552Z,46.05
2022-11-30T02:38:45.144Z,44.00
2022-11-30T02:41:39.785Z,44.20
2022-11-30T02:44:30.518Z,45.88
2022-11-30T02:47:29.362Z,45.90
2022-11-30T02:50:25.235Z,45.80
2022-11-30T02:53:14.734Z,47.80
2022-11-30T02:56:05.070Z,45.33
2022-11-30T02:58:54.546Z,45.45
2022-11-30T03:01:43.876Z,45.33
2022-11-30T03:04:34.624Z,44.00
2022-11-30T03:07:23.892Z,46.97
2022-11-30T03:10:13.494Z,44.05
2022-11-30T03:13:02.886Z,45.92
2022-11-30T03:15:52.338Z,45.38
2022-11-30T03:18:42.161Z,38.22
2022-11-30T03:21:33.084Z,37.88
2022-11-30T03:24:22.426Z,37.10
2022-11-30T03:27:11.818Z,41.15
2022-11-30T03:30:01.128Z,32.70
2022-11-30T03:32:52.029Z,27.17
2022-11-30T03:35:41.310Z,32.63
2022-11-30T03:38:32.427Z,33.80
2022-11-30T03:41:21.771Z,30.40
2022-11-30T03:44:12.019Z,42.47
2022-11-30T03:47:01.285Z,47.00
2022-11-30T03:49:50.551Z,80.38
2022-11-30T03:52:39.816Z,57.38
2022-11-30T03:55:30.474Z,26.52
2022-11-30T03:58:19.706Z,26.33
2022-11-30T04:01:12.438Z,38.30
2022-11-30T04:04:01.708Z,37.15
2022-11-30T04:06:51.073Z,39.03
2022-11-30T04:09:40.383Z,37.58
2022-11-30T04:12:31.315Z,43.15
2022-11-30T04:15:20.634Z,33.85
2022-11-30T04:18:09.908Z,32.83
2022-11-30T04:21:01.393Z,30.02
2022-11-30T04:23:50.659Z,30.90
2022-11-30T04:26:39.956Z,26.67
2022-11-30T04:29:30.584Z,34.58
2022-11-30T04:32:19.865Z,38.42
2022-11-30T04:35:11.500Z,35.83
2022-11-30T04:38:01.283Z,50.28
2022-11-30T04:40:50.571Z,38.65
2022-11-30T04:43:39.974Z,27.90
2022-11-30T04:46:30.770Z,24.45
2022-11-30T04:49:20.204Z,29.77
2022-11-30T04:52:09.438Z,30.65
2022-11-30T04:54:58.882Z,25.58
2022-11-30T04:57:48.515Z,28.67
2022-11-30T05:00:38.431Z,33.72
2022-11-30T05:03:29.254Z,39.67
2022-11-30T05:06:18.542Z,50.28
2022-11-30T05:09:07.846Z,56.72
2022-11-30T05:11:57.240Z,50.38
2022-11-30T05:14:46.905Z,45.78
2022-11-30T05:17:36.548Z,40.03
2022-11-30T05:20:27.228Z,42.78
2022-11-30T05:23:16.716Z,48.20
2022-11-30T05:26:06.482Z,41.92
2022-11-30T05:28:55.796Z,39.53
2022-11-30T05:31:45.132Z,34.45
2022-11-30T05:34:45.832Z,31.17
2022-11-30T05:37:41.072Z,34.42
2022-11-30T05:40:32.609Z,35.30
2022-11-30T05:43:21.915Z,37.22
2022-11-30T05:46:11.914Z,42.80
2022-11-30T05:49:01.417Z,61.58
2022-11-30T05:51:50.633Z,54.13
2022-11-30T05:54:41.390Z,38.08
2022-11-30T05:57:30.627Z,42.17
2022-11-30T06:00:21.846Z,33.03
2022-11-30T06:03:11.342Z,35.28
2022-11-30T06:06:00.754Z,33.22
2022-11-30T06:08:50.960Z,45.67
2022-11-30T06:11:41.754Z,33.35
2022-11-30T06:14:31.024Z,42.90
2022-11-30T06:17:20.272Z,30.67
2022-11-30T06:20:10.783Z,30.00
2022-11-30T06:23:00.185Z,29.58
2022-11-30T06:25:49.487Z,40.10
2022-11-30T06:28:45.348Z,57.35
2022-11-30T06:31:37.142Z,82.97
2022-11-30T06:34:26.358Z,36.97
2022-11-30T06:37:15.667Z,49.47
2022-11-30T06:40:07.286Z,49.85
2022-11-30T06:42:57.229Z,61.60
2022-11-30T06:45:48.431Z,63.03
2022-11-30T06:48:37.994Z,69.68
2022-11-30T06:51:27.369Z,54.20
2022-11-30T06:54:16.913Z,40.45
2022-11-30T06:57:06.350Z,29.70
2022-11-30T06:59:55.735Z,42.50
2022-11-30T07:02:46.430Z,35.00
2022-11-30T07:05:40.816Z,39.03
2022-11-30T07:08:30.081Z,39.85
2022-11-30T07:11:19.395Z,48.08
2022-11-30T07:14:08.783Z,44.42
2022-11-30T07:16:58.327Z,46.85
2022-11-30T07:19:49.113Z,44.13
2022-11-30T07:22:38.397Z,46.65
2022-11-30T07:25:44.840Z,43.08
2022-11-30T07:28:34.270Z,47.95
2022-11-30T07:31:26.455Z,45.45
2022-11-30T07:34:15.759Z,49.30
2022-11-30T07:37:06.370Z,35.08
2022-11-30T07:39:55.935Z,30.13
2022-11-30T07:42:45.188Z,27.10
2022-11-30T07:45:34.601Z,29.90
2022-11-30T07:48:24.349Z,33.30
2022-11-30T07:51:16.289Z,29.83
2022-11-30T07:54:07.629Z,31.70
2022-11-30T07:56:56.882Z,29.77
2022-11-30T07:59:46.507Z,28.52
2022-11-30T08:02:35.889Z,31.13
2022-11-30T08:05:25.221Z,30.13
2022-11-30T08:08:14.557Z,28.92
2022-11-30T08:11:06.489Z,25.38
2022-11-30T08:13:56.239Z,23.40
2022-11-30T08:16:45.545Z,21.45
2022-11-30T08:19:34.867Z,33.33
2022-11-30T08:22:24.198Z,38.80
2022-11-30T08:25:13.477Z,43.33
2022-11-30T08:28:04.385Z,37.15
2022-11-30T08:30:53.681Z,38.50
2022-11-30T08:33:43.480Z,38.53
2022-11-30T08:36:33.764Z,39.28
2022-11-30T08:39:23.250Z,44.67
2022-11-30T08:42:12.516Z,53.50
2022-11-30T08:45:03.501Z,61.40
2022-11-30T08:47:52.872Z,62.38
2022-11-30T08:50:42.365Z,55.08
2022-11-30T08:53:31.948Z,58.95
2022-11-30T08:56:23.939Z,52.45
2022-11-30T08:59:13.195Z,55.70
2022-11-30T09:02:04.166Z,54.85
2022-11-30T09:04:53.721Z,51.08
2022-11-30T09:07:43.014Z,51.20
2022-11-30T09:10:32.318Z,52.50
2022-11-30T09:13:21.665Z,51.00
2022-11-30T09:16:12.673Z,51.40
2022-11-30T09:19:03.611Z,60.10
2022-11-30T09:21:53.089Z,63.90
2022-11-30T09:24:42.734Z,63.20
2022-11-30T09:27:34.195Z,55.15
2022-11-30T09:30:23.960Z,49.17
2022-11-30T09:33:13.233Z,51.97
2022-11-30T09:36:06.246Z,53.40
2022-11-30T09:38:56.159Z,53.97
2022-11-30T09:42:39.599Z,55.40
2022-11-30T09:45:32.860Z,53.17
2022-11-30T09:48:43.215Z,50.03
2022-11-30T09:51:45.635Z,48.78
2022-11-30T09:54:40.537Z,28.60
2022-11-30T09:57:36.267Z,42.20
2022-11-30T10:00:26.794Z,36.85
2022-11-30T10:03:16.319Z,38.67
2022-11-30T10:06:11.274Z,34.60
2022-11-30T10:09:29.155Z,38.97
2022-11-30T10:12:26.581Z,29.63
2022-11-30T10:15:42.109Z,22.40
2022-11-30T10:18:42.391Z,23.65
2022-11-30T10:21:52.548Z,25.35
2022-11-30T10:25:08.624Z,27.92
2022-11-30T10:28:38.642Z,26.08
2022-11-30T10:31:21.272Z,30.17
2022-11-30T10:34:22.214Z,30.52
2022-11-30T10:37:18.603Z,35.75
2022-11-30T10:40:18.752Z,31.70
2022-11-30T10:43:20.331Z,33.38
2022-11-30T10:46:22.086Z,29.55
2022-11-30T10:49:20.631Z,29.08
2022-11-30T10:52:13.812Z,26.48
2022-11-30T10:58:03.840Z,29.50
2022-11-30T11:01:03.672Z,32.42
2022-11-30T11:04:15.833Z,26.05
2022-11-30T11:07:15.300Z,27.42
2022-11-30T11:10:05.253Z,24.98
2022-11-30T11:12:57.137Z,26.15
2022-11-30T11:16:00.007Z,27.60
2022-11-30T11:18:56.065Z,24.77
2022-11-30T11:21:49.414Z,22.40
2022-11-30T11:24:38.725Z,22.30
2022-11-30T11:27:31.947Z,20.10
2022-11-30T11:30:32.249Z,22.23
2022-11-30T11:33:25.050Z,27.15
2022-11-30T11:36:26.815Z,26.27
2022-11-30T11:39:28.316Z,26.85
2022-11-30T11:42:22.662Z,28.90
2022-11-30T11:45:19.400Z,29.05
2022-11-30T11:48:34.851Z,30.20
2022-11-30T11:51:32.937Z,28.02
2022-11-30T11:54:28.654Z,29.52
2022-11-30T11:57:21.241Z,32.63
2022-11-30T12:00:19.804Z,32.05
2022-11-30T12:03:20.852Z,33.42
2022-11-30T12:06:15.555Z,33.45
2022-11-30T12:09:13.771Z,31.25
2022-11-30T12:12:03.210Z,31.42
2022-11-30T12:14:52.530Z,30.40
2022-11-30T12:17:54.858Z,29.75
2022-11-30T12:20:55.875Z,32.88
2022-11-30T12:24:06.395Z,31.15
2022-11-30T12:27:04.312Z,31.08
2022-11-30T12:30:09.997Z,33.17
2022-11-30T12:33:27.625Z,29.85
2022-11-30T12:36:30.542Z,30.55
2022-11-30T12:39:31.424Z,27.58
2022-11-30T12:42:31.380Z,29.42
2022-11-30T12:45:30.279Z,29.33
2022-11-30T12:48:32.803Z,27.75
2022-11-30T12:51:34.133Z,24.73
2022-11-30T12:54:33.921Z,21.67
2022-11-30T12:57:28.378Z,20.73
2022-11-30T13:00:22.596Z,23.38
2022-11-30T13:03:48.045Z,21.58
2022-11-30T13:06:45.215Z,23.35
2022-11-30T13:09:39.618Z,22.58
2022-11-30T13:12:36.366Z,24.00
2022-11-30T13:15:29.538Z,19.08
2022-11-30T13:18:22.005Z,20.88
2022-11-30T13:21:23.047Z,22.63
2022-11-30T13:24:22.656Z,23.08
2022-11-30T13:27:21.373Z,25.92
2022-11-30T13:30:28.227Z,29.73
2022-11-30T13:33:50.283Z,32.28
2022-11-30T13:36:41.417Z,30.35
2022-11-30T13:39:45.839Z,34.97
2022-11-30T13:42:44.980Z,20.90
2022-11-30T13:45:38.759Z,31.38
2022-11-30T13:48:34.997Z,18.35
2022-11-30T13:51:39.758Z,19.70
2022-11-30T13:54:42.403Z,17.83
2022-11-30T13:58:10.354Z,32.38
2022-11-30T14:01:28.309Z,16.95
2022-11-30T14:04:34.587Z,18.20
2022-11-30T14:07:37.944Z,18.48
2022-11-30T14:13:32.675Z,16.70
2022-11-30T14:16:27.480Z,19.65
2022-11-30T14:19:17.059Z,18.30
2022-11-30T14:22:12.072Z,19.98
2022-11-30T14:25:02.801Z,20.20
2022-11-30T14:27:59.016Z,19.25
2022-11-30T14:30:49.775Z,20.33
2022-11-30T14:33:49.598Z,21.70
2022-11-30T14:36:46.368Z,20.23
2022-11-30T14:39:39.137Z,20.35
2022-11-30T14:42:31.150Z,21.00
2022-11-30T14:45:25.607Z,20.70
2022-11-30T14:48:17.898Z,22.02
2022-11-30T14:51:07.430Z,22.20
2022-11-30T14:54:06.497Z,21.75
2022-11-30T14:57:03.920Z,21.77
2022-11-30T14:59:55.514Z,21.50
2022-11-30T15:02:47.056Z,21.25
2022-11-30T15:05:36.768Z,22.02
2022-11-30T15:08:33.945Z,21.13
2022-11-30T15:11:24.101Z,23.75
2022-11-30T15:14:13.633Z,23.10
2022-11-30T15:17:02.976Z,25.73
2022-11-30T15:19:54.547Z,26.00
2022-11-30T15:22:43.793Z,27.25
2022-11-30T15:25:39.352Z,29.42
2022-11-30T15:28:35.243Z,32.38
2022-11-30T15:31:25.620Z,32.42
2022-11-30T15:34:21.745Z,36.85
2022-11-30T15:37:12.858Z,55.13
2022-11-30T15:40:07.256Z,45.75
2022-11-30T15:42:56.936Z,44.38
2022-11-30T15:45:55.923Z,47.85
2022-11-30T15:48:49.127Z,44.35
2022-11-30T15:54:48.304Z,32.95
2022-11-30T15:58:00.834Z,35.83
2022-11-30T16:01:14.539Z,33.38
2022-11-30T16:04:08.103Z,33.55
2022-11-30T16:06:57.690Z,37.25
2022-11-30T16:09:48.600Z,48.08
2022-11-30T16:12:38.295Z,48.35
2022-11-30T16:15:30.637Z,47.40
2022-11-30T16:18:24.473Z,51.05
2022-11-30T16:21:17.038Z,50.45
2022-11-30T16:24:07.390Z,50.92
2022-11-30T16:26:58.045Z,44.75
2022-11-30T16:29:52.297Z,37.85
2022-11-30T16:32:41.888Z,34.45
2022-11-30T16:35:38.552Z,33.97
2022-11-30T16:38:28.986Z,38.67
2022-11-30T16:41:21.241Z,47.78
2022-11-30T16:44:15.229Z,36.90
2022-11-30T16:47:04.472Z,33.45
2022-11-30T16:49:53.877Z,35.75
2022-11-30T16:52:44.564Z,35.08
2022-11-30T16:55:37.902Z,41.85
2022-11-30T16:58:27.237Z,41.45
2022-11-30T17:01:22.636Z,36.20
2022-11-30T17:04:17.936Z,34.00
2022-11-30T17:07:07.273Z,34.00
2022-11-30T17:09:56.868Z,33.65
2022-11-30T17:12:46.266Z,35.67
2022-11-30T17:15:35.584Z,39.00
2022-11-30T17:18:26.364Z,41.60
2022-11-30T17:21:20.573Z,43.00
2022-11-30T17:24:10.207Z,41.05
2022-11-30T17:27:00.048Z,42.75
2022-11-30T17:29:49.436Z,56.45
2022-11-30T17:32:38.703Z,55.90
2022-11-30T17:35:29.354Z,51.67
2022-11-30T17:38:18.881Z,58.83
2022-11-30T17:41:12.992Z,57.47
2022-11-30T17:44:05.065Z,59.60
2022-11-30T17:46:54.396Z,63.30
2022-11-30T17:49:43.974Z,57.45
2022-11-30T17:52:34.889Z,59.60
2022-11-30T17:55:24.168Z,54.38
2022-11-30T17:58:13.462Z,55.05
2022-11-30T18:01:02.838Z,55.58
2022-11-30T18:03:53.127Z,50.88
2022-11-30T18:06:42.639Z,53.97
2022-11-30T18:09:37.965Z,54.25
2022-11-30T18:12:30.258Z,57.65
2022-11-30T18:15:19.948Z,69.10
2022-11-30T18:18:09.236Z,60.72
2022-11-30T18:21:05.635Z,66.13
2022-11-30T18:23:55.276Z,77.45
2022-11-30T18:26:46.007Z,92.45
2022-11-30T18:29:35.409Z,91.50
2022-11-30T18:32:24.671Z,104.35
2022-11-30T18:35:13.989Z,84.18
2022-11-30T18:38:03.236Z,85.47
2022-11-30T18:40:52.754Z,85.57
2022-11-30T18:43:43.429Z,83.45
2022-11-30T18:46:32.774Z,87.75
2022-11-30T18:49:23.654Z,94.97
2022-11-30T18:52:12.895Z,83.55
2022-11-30T18:55:02.144Z,72.57
2022-11-30T18:57:51.724Z,76.18
2022-11-30T19:00:42.541Z,80.10
2022-11-30T19:03:31.823Z,83.45
2022-11-30T19:06:21.518Z,90.03
2022-11-30T19:09:15.033Z,68.50
2022-11-30T19:12:04.416Z,66.95
2022-11-30T19:14:54.254Z,71.93
2022-11-30T19:17:44.893Z,68.05
2022-11-30T19:20:40.342Z,67.40
2022-11-30T19:23:29.796Z,69.65
2022-11-30T19:26:19.393Z,69.22
2022-11-30T19:29:09.411Z,77.43
2022-11-30T19:31:58.764Z,80.07
2022-11-30T19:34:50.106Z,82.95
2022-11-30T19:37:40.245Z,96.88
2022-11-30T19:40:29.619Z,98.97
2022-11-30T19:43:18.953Z,100.10
2022-11-30T19:46:10.000Z,103.93
2022-11-30T19:49:01.986Z,107.30
2022-11-30T19:51:52.814Z,105.07
2022-11-30T19:54:42.197Z,111.45
2022-11-30T19:57:31.774Z,110.57
2022-11-30T20:00:21.810Z,103.57
2022-11-30T20:03:12.149Z,98.25
2022-11-30T20:06:01.613Z,94.15
2022-11-30T20:08:52.638Z,89.18
2022-11-30T20:11:42.133Z,95.68
2022-11-30T20:14:31.464Z,105.20
2022-11-30T20:17:20.759Z,104.93
2022-11-30T20:20:11.931Z,104.88
2022-11-30T20:23:01.303Z,104.95
2022-11-30T20:25:51.993Z,104.85
2022-11-30T20:28:41.879Z,105.35
2022-11-30T20:31:34.513Z,100.78
2022-11-30T20:34:27.479Z,102.20
2022-11-30T20:37:20.714Z,103.60
2022-11-30T20:40:12.315Z,103.78
2022-11-30T20:43:03.038Z,108.25
2022-11-30T20:45:52.423Z,103.65
2022-11-30T20:48:41.936Z,115.43
2022-11-30T20:51:33.653Z,119.65
2022-11-30T20:54:23.445Z,118.05
2022-11-30T20:57:12.734Z,117.18
2022-11-30T21:00:08.809Z,119.22
2022-11-30T21:03:01.132Z,115.78
2022-11-30T21:05:51.240Z,124.45
2022-11-30T21:08:42.481Z,127.05
2022-11-30T21:11:32.716Z,119.00
2022-11-30T21:14:22.256Z,120.80
2022-11-30T21:17:13.001Z,119.65
2022-11-30T21:20:02.285Z,134.88
2022-11-30T21:22:53.846Z,131.10
2022-11-30T21:25:45.790Z,130.00
2022-11-30T21:28:38.272Z,125.22
2022-11-30T21:31:27.957Z,114.55
2022-11-30T21:34:18.704Z,115.22
2022-11-30T21:37:07.967Z,104.95
2022-11-30T21:39:57.294Z,110.88
2022-11-30T21:42:46.568Z,108.68
2022-11-30T21:45:36.356Z,111.53
2022-11-30T21:48:25.689Z,108.72
2022-11-30T21:51:21.679Z,110.55
2022-11-30T21:54:14.362Z,117.15
2022-11-30T21:57:03.788Z,110.72
2022-11-30T21:59:53.329Z,112.07
2022-11-30T22:02:42.742Z,105.32
2022-11-30T22:05:32.095Z,110.95
2022-11-30T22:08:22.846Z,121.25
2022-11-30T22:11:14.572Z,126.07
2022-11-30T22:14:04.945Z,116.43
2022-11-30T22:16:54.423Z,111.40
2022-11-30T22:19:43.850Z,113.00
2022-11-30T22:22:33.380Z,114.00
2022-11-30T22:25:24.612Z,111.85
2022-11-30T22:28:14.174Z,119.30
2022-11-30T22:31:05.043Z,116.03
2022-11-30T22:33:54.658Z,120.85
2022-11-30T22:36:45.501Z,103.30
2022-11-30T22:39:34.887Z,108.93
2022-11-30T22:42:25.545Z,110.10
2022-11-30T22:45:14.818Z,104.80
2022-11-30T22:48:04.106Z,98.20
2022-11-30T22:50:53.345Z,98.78
2022-11-30T22:53:44.223Z,89.93
2022-11-30T22:56:35.549Z,90.22
2022-11-30T22:59:26.710Z,91.07
2022-11-30T23:02:16.085Z,94.60
2022-11-30T23:05:06.367Z,92.32
2022-11-30T23:07:56.105Z,91.22
2022-11-30T23:10:45.602Z,95.10
2022-11-30T23:13:35.441Z,92.60
2022-11-30T23:16:26.320Z,95.43
2022-11-30T23:19:16.465Z,111.95
2022-11-30T23:22:05.884Z,101.32
2022-11-30T23:24:56.089Z,98.35
2022-11-30T23:27:45.783Z,143.38
2022-11-30T23:30:35.200Z,122.35
2022-11-30T23:33:26.407Z,112.30
2022-11-30T23:36:18.506Z,113.57
2022-11-30T23:39:10.816Z,109.88
2022-11-30T23:42:00.034Z,113.73
2022-11-30T23:44:49.360Z,111.78
2022-11-30T23:47:38.627Z,109.22
2022-11-30T23:50:29.805Z,110.70
2022-11-30T23:53:19.196Z,107.38
2022-11-30T23:56:10.798Z,109.70
2022-11-30T23:59:00.331Z,111.22
